Aérodrome :







RETROUVEZ-NOUS SUR...

 
LOGIN :

S'inscrire | Disclaimer

   EN    FR    IT 

 









Légende :    VFR   VFR Marginal   IFR   IFR Intensif   IFR Très Intensif
Visi : 
Plafond : 
>= 8 km
>= 3000ft
5 à 8 km
1000 à 3000 ft
1500m à 5 km
500 à 1000 ft
800 à 1500m
200 à 500 ft
< 800m
< 200 ft
Symboles :   Orages  Brouillard  Fortes neiges  Fortes précipitations  Vent > 20 kt






- Altitude de l'aérodrome : 36 ft
- Code IATA : PTP


TFFR - Le Raizet

DERNIER METAR :
  • 221300Z AUTO 08006KT 050V110 9999 FEW040 BKN060 OVC072 26/21 Q1014

METARs EXPIRÉS :
  • 221230Z AUTO VRB02KT 9999 FEW029 BKN047 OVC058 23/22 Q1014
  • 221200Z AUTO VRB02KT 9999 BKN050 BKN060 23/22 Q1013
  • 221130Z AUTO VRB01KT 9999 BKN044 22/22 Q1013
  • 221100Z AUTO 00000KT 9999 BKN043 21/21 Q1013
  • 221030Z AUTO 00000KT 9999 OVC039 21/21 Q1013

TAF TAF TFFR
Valide du 21 à 18h jusqu'au 22 à 18h UTC


211700Z 2118/2218 09010KT 9999 SCT025 BKN040
PROB40
TEMPO 2118/2210 4000 SHRA SCT015 BKN020TCU
BECMG 2122/2124 VRB03KT
BECMG 2212/2214 12010KT



MET'MAP, la Météo Aéronautique d'un coup d'oeil ! - Copyright ORBIFLY Décembre 2007 - Disclaimer

ORBIFLY MET'MAP TEAM :

Programmation & Développement : Alexandra Zaïnal
Sur une idée originale de : Baudouin d'Aumeries
Assistance à la programmation : Marc-Olivier Méhu
Soutien technique & logistique : Manuel Goepfert

Contact : metmap@orbifly.com




SOURCES & CREDITS :

   NOAA